sensor_id;sensor_type;location;lat;lon;timestamp;pressure;altitude;pressure_sealevel;temperature;humidity
26978;BME280;56314;48.088;11.642;2023-03-13T00:00:52;95154.59;;;4.79;91.92
26978;BME280;56314;48.088;11.642;2023-03-13T00:03:18;95145.69;;;4.83;91.51
26978;BME280;56314;48.088;11.642;2023-03-13T00:05:44;95143.38;;;4.78;92.22
26978;BME280;56314;48.088;11.642;2023-03-13T00:08:09;95139.44;;;4.71;92.26
26978;BME280;56314;48.088;11.642;2023-03-13T00:10:39;95128.69;;;4.77;92.13
26978;BME280;56314;48.088;11.642;2023-03-13T00:13:05;95124.56;;;4.73;92.04
26978;BME280;56314;48.088;11.642;2023-03-13T00:15:31;95125.88;;;4.66;92.00
26978;BME280;56314;48.088;11.642;2023-03-13T00:17:57;95116.56;;;4.62;92.50
26978;BME280;56314;48.088;11.642;2023-03-13T00:20:22;95110.53;;;4.61;92.49
26978;BME280;56314;48.088;11.642;2023-03-13T00:22:47;95106.78;;;4.51;92.63
26978;BME280;56314;48.088;11.642;2023-03-13T00:25:13;95113.00;;;4.49;93.24
26978;BME280;56314;48.088;11.642;2023-03-13T00:27:38;95107.41;;;4.40;93.19
26978;BME280;56314;48.088;11.642;2023-03-13T00:30:04;95108.91;;;4.44;92.79
26978;BME280;56314;48.088;11.642;2023-03-13T00:32:29;95109.09;;;4.41;93.06
26978;BME280;56314;48.088;11.642;2023-03-13T00:34:54;95105.38;;;4.45;92.60
26978;BME280;56314;48.088;11.642;2023-03-13T00:37:20;95098.09;;;4.36;92.35
26978;BME280;56314;48.088;11.642;2023-03-13T00:39:45;95094.41;;;4.40;92.22
26978;BME280;56314;48.088;11.642;2023-03-13T00:42:10;95087.97;;;4.31;92.71
26978;BME280;56314;48.088;11.642;2023-03-13T00:44:36;95089.91;;;4.28;92.50
26978;BME280;56314;48.088;11.642;2023-03-13T00:47:01;95079.34;;;4.31;92.18
26978;BME280;56314;48.088;11.642;2023-03-13T00:49:26;95077.66;;;4.30;92.65
26978;BME280;56314;48.088;11.642;2023-03-13T00:51:52;95075.41;;;4.24;92.75
26978;BME280;56314;48.088;11.642;2023-03-13T00:54:17;95065.75;;;4.26;92.57
26978;BME280;56314;48.088;11.642;2023-03-13T00:56:43;95072.06;;;4.22;91.93
26978;BME280;56314;48.088;11.642;2023-03-13T00:59:08;95067.97;;;4.18;93.06
26978;BME280;56314;48.088;11.642;2023-03-13T01:01:34;95069.16;;;4.12;92.59
26978;BME280;56314;48.088;11.642;2023-03-13T01:04:03;95068.41;;;4.10;92.60
26978;BME280;56314;48.088;11.642;2023-03-13T01:06:31;95069.44;;;4.07;93.37
26978;BME280;56314;48.088;11.642;2023-03-13T01:08:58;95077.38;;;4.04;93.38
26978;BME280;56314;48.088;11.642;2023-03-13T01:11:31;95068.84;;;4.02;92.94
26978;BME280;56314;48.088;11.642;2023-03-13T01:14:00;95065.47;;;4.00;93.29
26978;BME280;56314;48.088;11.642;2023-03-13T01:16:27;95062.13;;;3.98;92.66
26978;BME280;56314;48.088;11.642;2023-03-13T01:18:55;95059.78;;;3.93;92.85
26978;BME280;56314;48.088;11.642;2023-03-13T01:21:22;95051.06;;;3.94;92.60
26978;BME280;56314;48.088;11.642;2023-03-13T01:23:49;95049.34;;;3.95;93.00
26978;BME280;56314;48.088;11.642;2023-03-13T01:26:15;95055.44;;;3.94;92.50
26978;BME280;56314;48.088;11.642;2023-03-13T01:28:41;95054.97;;;3.87;92.42
26978;BME280;56314;48.088;11.642;2023-03-13T01:31:14;95046.31;;;3.87;92.60
26978;BME280;56314;48.088;11.642;2023-03-13T01:33:40;95048.19;;;3.84;92.75
26978;BME280;56314;48.088;11.642;2023-03-13T01:36:06;95039.63;;;3.82;92.63
26978;BME280;56314;48.088;11.642;2023-03-13T01:38:32;95037.09;;;3.81;92.67
26978;BME280;56314;48.088;11.642;2023-03-13T01:40:57;95042.78;;;3.88;92.48
26978;BME280;56314;48.088;11.642;2023-03-13T01:43:25;95038.22;;;3.77;92.50
26978;BME280;56314;48.088;11.642;2023-03-13T01:50:54;95029.00;;;3.71;92.36
26978;BME280;56314;48.088;11.642;2023-03-13T01:53:21;95031.94;;;3.65;92.75
26978;BME280;56314;48.088;11.642;2023-03-13T01:55:48;95021.53;;;3.65;92.31
26978;BME280;56314;48.088;11.642;2023-03-13T01:58:13;95038.72;;;3.67;92.65
26978;BME280;56314;48.088;11.642;2023-03-13T02:00:39;95017.88;;;3.69;92.39
26978;BME280;56314;48.088;11.642;2023-03-13T02:03:10;95021.81;;;3.60;92.59
26978;BME280;56314;48.088;11.642;2023-03-13T02:05:37;95023.66;;;3.58;92.44
26978;BME280;56314;48.088;11.642;2023-03-13T02:08:17;95019.47;;;3.56;92.45
26978;BME280;56314;48.088;11.642;2023-03-13T02:10:52;95020.47;;;3.53;92.34
26978;BME280;56314;48.088;11.642;2023-03-13T02:13:21;95017.28;;;3.48;92.79
26978;BME280;56314;48.088;11.642;2023-03-13T02:15:47;95006.91;;;3.48;93.32
26978;BME280;56314;48.088;11.642;2023-03-13T02:18:13;95007.31;;;3.40;92.85
26978;BME280;56314;48.088;11.642;2023-03-13T02:20:39;95009.91;;;3.40;93.70
26978;BME280;56314;48.088;11.642;2023-03-13T02:23:26;95004.06;;;3.52;92.81
26978;BME280;56314;48.088;11.642;2023-03-13T02:25:55;95000.13;;;3.45;92.83
26978;BME280;56314;48.088;11.642;2023-03-13T02:28:28;95000.31;;;3.42;93.00
26978;BME280;56314;48.088;11.642;2023-03-13T02:30:58;95000.19;;;3.44;92.02
26978;BME280;56314;48.088;11.642;2023-03-13T02:33:29;95000.91;;;3.47;91.89
26978;BME280;56314;48.088;11.642;2023-03-13T02:35:55;95004.66;;;3.42;92.68
26978;BME280;56314;48.088;11.642;2023-03-13T02:38:28;95004.81;;;3.54;92.03
26978;BME280;56314;48.088;11.642;2023-03-13T02:40:55;95004.16;;;3.51;92.51
26978;BME280;56314;48.088;11.642;2023-03-13T02:43:23;95008.59;;;3.49;91.96
26978;BME280;56314;48.088;11.642;2023-03-13T02:46:01;95014.94;;;3.43;92.19
26978;BME280;56314;48.088;11.642;2023-03-13T02:48:31;95015.06;;;3.42;91.91
26978;BME280;56314;48.088;11.642;2023-03-13T02:50:57;95023.75;;;3.41;92.15
26978;BME280;56314;48.088;11.642;2023-03-13T02:53:22;95023.16;;;3.35;92.67
26978;BME280;56314;48.088;11.642;2023-03-13T02:55:48;95025.50;;;3.40;92.42
26978;BME280;56314;48.088;11.642;2023-03-13T02:58:13;95035.88;;;3.40;92.82
26978;BME280;56314;48.088;11.642;2023-03-13T03:00:39;95034.19;;;3.39;92.86
26978;BME280;56314;48.088;11.642;2023-03-13T03:03:04;95042.25;;;3.34;92.92
26978;BME280;56314;48.088;11.642;2023-03-13T03:05:29;95038.63;;;3.37;92.48
26978;BME280;56314;48.088;11.642;2023-03-13T03:07:55;95022.75;;;3.43;91.85
26978;BME280;56314;48.088;11.642;2023-03-13T03:10:20;95029.09;;;3.37;91.54
26978;BME280;56314;48.088;11.642;2023-03-13T03:12:45;95019.75;;;3.35;92.15
26978;BME280;56314;48.088;11.642;2023-03-13T03:15:11;95029.00;;;3.39;92.19
26978;BME280;56314;48.088;11.642;2023-03-13T03:17:37;95018.16;;;3.48;91.00
26978;BME280;56314;48.088;11.642;2023-03-13T03:20:03;95023.56;;;3.44;91.22
26978;BME280;56314;48.088;11.642;2023-03-13T03:22:32;95013.19;;;3.44;90.65
26978;BME280;56314;48.088;11.642;2023-03-13T03:24:58;95026.09;;;3.45;90.69
26978;BME280;56314;48.088;11.642;2023-03-13T03:27:24;95025.84;;;3.50;90.86
26978;BME280;56314;48.088;11.642;2023-03-13T03:29:49;95021.41;;;3.52;90.57
26978;BME280;56314;48.088;11.642;2023-03-13T03:32:14;95018.81;;;3.52;90.95
26978;BME280;56314;48.088;11.642;2023-03-13T03:34:40;95017.13;;;3.51;90.44
26978;BME280;56314;48.088;11.642;2023-03-13T03:37:05;95020.56;;;3.51;89.94
26978;BME280;56314;48.088;11.642;2023-03-13T03:39:30;95024.41;;;3.60;89.25
26978;BME280;56314;48.088;11.642;2023-03-13T03:41:56;95017.38;;;3.62;89.42
26978;BME280;56314;48.088;11.642;2023-03-13T03:44:21;95016.63;;;3.60;90.01
26978;BME280;56314;48.088;11.642;2023-03-13T03:46:46;95012.69;;;3.53;89.69
26978;BME280;56314;48.088;11.642;2023-03-13T03:49:12;95010.25;;;3.50;89.89
26978;BME280;56314;48.088;11.642;2023-03-13T03:51:37;95005.41;;;3.60;88.26
26978;BME280;56314;48.088;11.642;2023-03-13T03:54:02;95007.16;;;3.59;88.32
26978;BME280;56314;48.088;11.642;2023-03-13T03:56:28;95005.16;;;3.64;88.09
26978;BME280;56314;48.088;11.642;2023-03-13T03:58:53;94999.84;;;3.66;87.89
26978;BME280;56314;48.088;11.642;2023-03-13T04:01:18;95003.53;;;3.62;88.64
26978;BME280;56314;48.088;11.642;2023-03-13T04:03:43;94996.59;;;3.62;87.95
26978;BME280;56314;48.088;11.642;2023-03-13T04:06:09;94995.03;;;3.60;87.42
26978;BME280;56314;48.088;11.642;2023-03-13T04:08:35;94995.50;;;3.66;87.46
26978;BME280;56314;48.088;11.642;2023-03-13T04:11:00;94994.31;;;3.72;87.15
26978;BME280;56314;48.088;11.642;2023-03-13T04:13:26;94990.56;;;3.62;87.37
26978;BME280;56314;48.088;11.642;2023-03-13T04:15:52;94994.25;;;3.58;87.61
26978;BME280;56314;48.088;11.642;2023-03-13T04:18:17;94977.06;;;3.55;87.81
26978;BME280;56314;48.088;11.642;2023-03-13T04:20:43;94983.78;;;3.59;88.08
26978;BME280;56314;48.088;11.642;2023-03-13T04:23:09;94972.56;;;3.59;88.12
26978;BME280;56314;48.088;11.642;2023-03-13T04:25:34;94969.13;;;3.58;87.99
26978;BME280;56314;48.088;11.642;2023-03-13T04:28:00;94963.66;;;3.63;88.12
26978;BME280;56314;48.088;11.642;2023-03-13T04:30:25;94950.91;;;3.74;87.22
26978;BME280;56314;48.088;11.642;2023-03-13T04:32:51;94951.66;;;3.76;87.28
26978;BME280;56314;48.088;11.642;2023-03-13T04:35:16;94944.19;;;3.86;86.52
26978;BME280;56314;48.088;11.642;2023-03-13T04:37:41;94942.50;;;3.85;86.21
26978;BME280;56314;48.088;11.642;2023-03-13T04:40:07;94941.69;;;3.84;86.44
26978;BME280;56314;48.088;11.642;2023-03-13T04:42:33;94936.72;;;3.80;86.40
26978;BME280;56314;48.088;11.642;2023-03-13T04:44:58;94932.66;;;3.76;87.09
26978;BME280;56314;48.088;11.642;2023-03-13T04:47:24;94928.28;;;3.76;87.10
26978;BME280;56314;48.088;11.642;2023-03-13T04:49:49;94922.16;;;3.77;87.40
26978;BME280;56314;48.088;11.642;2023-03-13T04:52:14;94926.09;;;3.84;86.91
26978;BME280;56314;48.088;11.642;2023-03-13T04:54:40;94915.25;;;3.92;86.14
26978;BME280;56314;48.088;11.642;2023-03-13T04:57:05;94911.81;;;3.92;87.16
26978;BME280;56314;48.088;11.642;2023-03-13T04:59:30;94914.72;;;4.02;85.99
26978;BME280;56314;48.088;11.642;2023-03-13T05:01:56;94902.44;;;4.04;85.80
26978;BME280;56314;48.088;11.642;2023-03-13T05:04:21;94902.56;;;4.02;85.86
26978;BME280;56314;48.088;11.642;2023-03-13T05:06:46;94893.66;;;4.06;85.41
26978;BME280;56314;48.088;11.642;2023-03-13T05:09:12;94899.59;;;4.08;84.85
26978;BME280;56314;48.088;11.642;2023-03-13T05:11:37;94896.72;;;4.13;84.90
26978;BME280;56314;48.088;11.642;2023-03-13T05:14:04;94896.72;;;4.13;84.81
26978;BME280;56314;48.088;11.642;2023-03-13T05:16:29;94892.66;;;4.23;84.10
26978;BME280;56314;48.088;11.642;2023-03-13T05:18:55;94888.28;;;4.24;84.61
26978;BME280;56314;48.088;11.642;2023-03-13T05:21:20;94889.38;;;4.34;83.28
26978;BME280;56314;48.088;11.642;2023-03-13T05:23:46;94893.00;;;4.31;83.08
26978;BME280;56314;48.088;11.642;2023-03-13T05:26:11;94880.66;;;4.35;83.16
26978;BME280;56314;48.088;11.642;2023-03-13T05:28:36;94877.88;;;4.38;82.32
26978;BME280;56314;48.088;11.642;2023-03-13T05:31:02;94879.44;;;4.41;81.85
26978;BME280;56314;48.088;11.642;2023-03-13T05:33:27;94872.22;;;4.46;81.92
26978;BME280;56314;48.088;11.642;2023-03-13T05:35:52;94867.06;;;4.59;80.97
26978;BME280;56314;48.088;11.642;2023-03-13T05:38:18;94873.88;;;4.61;80.42
26978;BME280;56314;48.088;11.642;2023-03-13T05:40:43;94860.31;;;4.56;81.04
26978;BME280;56314;48.088;11.642;2023-03-13T05:43:08;94857.06;;;4.67;80.49
26978;BME280;56314;48.088;11.642;2023-03-13T05:45:34;94862.34;;;4.66;80.35
26978;BME280;56314;48.088;11.642;2023-03-13T05:47:59;94850.22;;;4.79;79.77
26978;BME280;56314;48.088;11.642;2023-03-13T05:50:24;94852.69;;;4.95;78.35
26978;BME280;56314;48.088;11.642;2023-03-13T05:52:50;94842.44;;;5.06;77.96
26978;BME280;56314;48.088;11.642;2023-03-13T05:55:16;94850.38;;;5.18;77.80
26978;BME280;56314;48.088;11.642;2023-03-13T05:57:46;94847.50;;;5.22;77.20
26978;BME280;56314;48.088;11.642;2023-03-13T06:00:15;94848.44;;;5.21;76.82
26978;BME280;56314;48.088;11.642;2023-03-13T06:02:42;94844.69;;;5.26;76.56
26978;BME280;56314;48.088;11.642;2023-03-13T06:05:08;94845.03;;;5.34;76.34
26978;BME280;56314;48.088;11.642;2023-03-13T06:07:33;94835.47;;;5.47;75.31
26978;BME280;56314;48.088;11.642;2023-03-13T06:09:58;94831.41;;;5.43;75.96
26978;BME280;56314;48.088;11.642;2023-03-13T06:12:24;94826.72;;;5.48;75.32
26978;BME280;56314;48.088;11.642;2023-03-13T06:14:49;94829.44;;;5.47;75.27
26978;BME280;56314;48.088;11.642;2023-03-13T06:17:14;94816.22;;;5.50;75.29
26978;BME280;56314;48.088;11.642;2023-03-13T06:19:40;94812.69;;;5.51;75.84
26978;BME280;56314;48.088;11.642;2023-03-13T06:22:05;94808.28;;;5.51;75.84
26978;BME280;56314;48.088;11.642;2023-03-13T06:24:31;94813.50;;;5.51;75.41
26978;BME280;56314;48.088;11.642;2023-03-13T06:26:56;94811.31;;;5.58;75.06
26978;BME280;56314;48.088;11.642;2023-03-13T06:29:22;94813.31;;;5.54;75.66
26978;BME280;56314;48.088;11.642;2023-03-13T06:31:49;94807.47;;;5.64;75.16
26978;BME280;56314;48.088;11.642;2023-03-13T06:34:14;94812.38;;;5.68;75.05
26978;BME280;56314;48.088;11.642;2023-03-13T06:36:39;94810.94;;;5.77;73.57
26978;BME280;56314;48.088;11.642;2023-03-13T06:39:05;94805.19;;;5.85;73.28
26978;BME280;56314;48.088;11.642;2023-03-13T06:41:30;94807.16;;;5.94;72.72
26978;BME280;56314;48.088;11.642;2023-03-13T06:43:55;94803.44;;;5.98;71.53
26978;BME280;56314;48.088;11.642;2023-03-13T06:46:22;94801.59;;;6.00;71.97
26978;BME280;56314;48.088;11.642;2023-03-13T06:48:49;94807.41;;;6.04;71.57
26978;BME280;56314;48.088;11.642;2023-03-13T06:51:16;94804.28;;;6.12;71.34
26978;BME280;56314;48.088;11.642;2023-03-13T06:53:42;94800.81;;;6.11;70.87
26978;BME280;56314;48.088;11.642;2023-03-13T06:56:08;94801.25;;;6.18;70.77
26978;BME280;56314;48.088;11.642;2023-03-13T06:58:33;94799.47;;;6.19;70.68
26978;BME280;56314;48.088;11.642;2023-03-13T07:01:08;94804.25;;;6.25;70.37
26978;BME280;56314;48.088;11.642;2023-03-13T07:03:35;94803.53;;;6.23;70.58
26978;BME280;56314;48.088;11.642;2023-03-13T07:06:01;94801.31;;;6.29;70.25
26978;BME280;56314;48.088;11.642;2023-03-13T07:08:27;94801.72;;;6.36;69.57
26978;BME280;56314;48.088;11.642;2023-03-13T07:10:57;94802.88;;;6.32;70.12
26978;BME280;56314;48.088;11.642;2023-03-13T07:13:22;94805.00;;;6.27;70.93
26978;BME280;56314;48.088;11.642;2023-03-13T07:15:48;94796.84;;;6.31;70.63
26978;BME280;56314;48.088;11.642;2023-03-13T07:18:13;94792.84;;;6.39;70.54
26978;BME280;56314;48.088;11.642;2023-03-13T07:20:39;94795.47;;;6.39;70.08
26978;BME280;56314;48.088;11.642;2023-03-13T07:23:04;94797.84;;;6.42;69.88
26978;BME280;56314;48.088;11.642;2023-03-13T07:25:30;94804.22;;;6.51;69.77
26978;BME280;56314;48.088;11.642;2023-03-13T07:27:55;94800.53;;;6.53;69.97
26978;BME280;56314;48.088;11.642;2023-03-13T07:30:21;94806.06;;;6.61;69.91
26978;BME280;56314;48.088;11.642;2023-03-13T07:32:46;94800.81;;;6.74;69.60
26978;BME280;56314;48.088;11.642;2023-03-13T07:35:11;94794.91;;;6.84;69.20
26978;BME280;56314;48.088;11.642;2023-03-13T07:37:37;94783.19;;;6.89;68.53
26978;BME280;56314;48.088;11.642;2023-03-13T07:40:02;94790.31;;;6.87;68.30
26978;BME280;56314;48.088;11.642;2023-03-13T07:42:28;94789.75;;;6.95;67.84
26978;BME280;56314;48.088;11.642;2023-03-13T07:44:54;94785.03;;;7.00;67.08
26978;BME280;56314;48.088;11.642;2023-03-13T07:47:19;94780.63;;;7.01;67.13
26978;BME280;56314;48.088;11.642;2023-03-13T07:49:44;94768.78;;;7.32;64.62
26978;BME280;56314;48.088;11.642;2023-03-13T07:52:11;94772.25;;;7.44;63.81
26978;BME280;56314;48.088;11.642;2023-03-13T07:54:36;94765.50;;;7.53;62.08
26978;BME280;56314;48.088;11.642;2023-03-13T07:57:01;94770.16;;;7.61;61.72
26978;BME280;56314;48.088;11.642;2023-03-13T07:59:27;94767.88;;;7.56;61.12
26978;BME280;56314;48.088;11.642;2023-03-13T08:01:52;94773.47;;;7.63;60.38
26978;BME280;56314;48.088;11.642;2023-03-13T08:04:18;94790.97;;;7.74;60.44
26978;BME280;56314;48.088;11.642;2023-03-13T08:06:43;94795.38;;;7.84;60.14
26978;BME280;56314;48.088;11.642;2023-03-13T08:09:09;94792.53;;;7.99;60.32
26978;BME280;56314;48.088;11.642;2023-03-13T08:11:34;94792.56;;;8.10;58.83
26978;BME280;56314;48.088;11.642;2023-03-13T08:14:00;94788.03;;;8.24;58.48
26978;BME280;56314;48.088;11.642;2023-03-13T08:16:28;94782.31;;;8.30;58.83
26978;BME280;56314;48.088;11.642;2023-03-13T08:18:56;94783.53;;;8.49;58.92
26978;BME280;56314;48.088;11.642;2023-03-13T08:21:33;94780.16;;;8.69;58.91
26978;BME280;56314;48.088;11.642;2023-03-13T08:24:01;94761.69;;;8.93;58.76
26978;BME280;56314;48.088;11.642;2023-03-13T08:26:29;94749.34;;;9.05;58.78
26978;BME280;56314;48.088;11.642;2023-03-13T08:28:57;94754.72;;;9.36;57.50
26978;BME280;56314;48.088;11.642;2023-03-13T08:31:29;94747.28;;;9.63;56.55
26978;BME280;56314;48.088;11.642;2023-03-13T08:33:55;94753.25;;;9.86;56.53
26978;BME280;56314;48.088;11.642;2023-03-13T08:36:23;94758.41;;;9.76;58.19
26978;BME280;56314;48.088;11.642;2023-03-13T08:38:50;94763.00;;;9.42;61.20
26978;BME280;56314;48.088;11.642;2023-03-13T08:41:19;94776.94;;;9.21;62.31
26978;BME280;56314;48.088;11.642;2023-03-13T08:43:44;94770.13;;;8.97;64.17
26978;BME280;56314;48.088;11.642;2023-03-13T08:46:11;94780.16;;;8.81;66.62
26978;BME280;56314;48.088;11.642;2023-03-13T08:48:36;94783.50;;;8.71;66.46
26978;BME280;56314;48.088;11.642;2023-03-13T08:51:05;94782.78;;;8.69;67.22
26978;BME280;56314;48.088;11.642;2023-03-13T08:53:32;94778.03;;;8.74;67.30
26978;BME280;56314;48.088;11.642;2023-03-13T08:55:58;94774.44;;;8.87;67.67
26978;BME280;56314;48.088;11.642;2023-03-13T08:58:23;94768.44;;;8.96;67.60
26978;BME280;56314;48.088;11.642;2023-03-13T09:00:49;94771.16;;;9.06;66.89
26978;BME280;56314;48.088;11.642;2023-03-13T09:03:14;94767.53;;;9.39;64.52
26978;BME280;56314;48.088;11.642;2023-03-13T09:05:39;94770.88;;;9.84;63.77
26978;BME280;56314;48.088;11.642;2023-03-13T09:08:05;94763.38;;;10.31;61.66
26978;BME280;56314;48.088;11.642;2023-03-13T09:10:34;94752.06;;;11.01;55.83
26978;BME280;56314;48.088;11.642;2023-03-13T09:13:00;94744.09;;;12.09;51.11
26978;BME280;56314;48.088;11.642;2023-03-13T09:15:25;94736.19;;;13.92;47.90
26978;BME280;56314;48.088;11.642;2023-03-13T09:17:50;94728.16;;;15.88;39.79
26978;BME280;56314;48.088;11.642;2023-03-13T09:20:16;94722.19;;;16.51;37.94
26978;BME280;56314;48.088;11.642;2023-03-13T09:22:43;94724.22;;;16.40;38.14
26978;BME280;56314;48.088;11.642;2023-03-13T09:25:09;94724.84;;;15.69;37.91
26978;BME280;56314;48.088;11.642;2023-03-13T09:27:34;94727.44;;;15.12;40.14
26978;BME280;56314;48.088;11.642;2023-03-13T09:29:59;94736.75;;;14.65;40.25
26978;BME280;56314;48.088;11.642;2023-03-13T09:32:25;94728.09;;;14.11;41.54
26978;BME280;56314;48.088;11.642;2023-03-13T09:34:50;94721.09;;;13.76;42.45
26978;BME280;56314;48.088;11.642;2023-03-13T09:37:15;94710.44;;;15.06;41.34
26978;BME280;56314;48.088;11.642;2023-03-13T09:39:41;94697.31;;;17.46;36.17
26978;BME280;56314;48.088;11.642;2023-03-13T09:42:15;94691.34;;;19.46;32.47
26978;BME280;56314;48.088;11.642;2023-03-13T09:44:55;94686.03;;;20.24;30.84
26978;BME280;56314;48.088;11.642;2023-03-13T09:47:37;94687.25;;;20.28;32.11
26978;BME280;56314;48.088;11.642;2023-03-13T09:50:15;94676.13;;;20.60;29.25
26978;BME280;56314;48.088;11.642;2023-03-13T09:52:42;94670.91;;;20.03;30.18
26978;BME280;56314;48.088;11.642;2023-03-13T09:55:40;94670.44;;;20.70;28.72
26978;BME280;56314;48.088;11.642;2023-03-13T09:58:21;94667.78;;;21.45;28.51
26978;BME280;56314;48.088;11.642;2023-03-13T10:00:53;94669.66;;;21.92;27.38
26978;BME280;56314;48.088;11.642;2023-03-13T10:03:25;94658.13;;;22.05;27.66
26978;BME280;56314;48.088;11.642;2023-03-13T10:05:54;94649.97;;;23.04;25.91
26978;BME280;56314;48.088;11.642;2023-03-13T10:08:24;94653.59;;;23.80;26.05
26978;BME280;56314;48.088;11.642;2023-03-13T10:10:55;94661.06;;;23.08;25.11
26978;BME280;56314;48.088;11.642;2023-03-13T10:13:42;94650.63;;;22.54;26.63
26978;BME280;56314;48.088;11.642;2023-03-13T10:16:17;94640.84;;;22.07;26.83
26978;BME280;56314;48.088;11.642;2023-03-13T10:18:47;94643.13;;;22.69;27.28
26978;BME280;56314;48.088;11.642;2023-03-13T10:21:22;94638.81;;;22.68;27.05
26978;BME280;56314;48.088;11.642;2023-03-13T10:24:00;94625.88;;;23.04;25.84
26978;BME280;56314;48.088;11.642;2023-03-13T10:26:30;94638.53;;;23.29;25.91
26978;BME280;56314;48.088;11.642;2023-03-13T10:29:01;94632.16;;;22.91;26.14
26978;BME280;56314;48.088;11.642;2023-03-13T10:31:31;94640.00;;;22.13;26.97
26978;BME280;56314;48.088;11.642;2023-03-13T10:34:09;94636.75;;;21.31;28.60
26978;BME280;56314;48.088;11.642;2023-03-13T10:36:43;94642.72;;;21.60;28.22
26978;BME280;56314;48.088;11.642;2023-03-13T10:39:18;94637.91;;;22.36;29.14
26978;BME280;56314;48.088;11.642;2023-03-13T10:41:44;94635.88;;;22.24;28.72
26978;BME280;56314;48.088;11.642;2023-03-13T10:44:23;94624.78;;;20.86;29.41
26978;BME280;56314;48.088;11.642;2023-03-13T10:46:59;94625.03;;;20.56;30.24
26978;BME280;56314;48.088;11.642;2023-03-13T10:49:25;94622.00;;;20.18;29.80
26978;BME280;56314;48.088;11.642;2023-03-13T10:51:59;94629.09;;;19.75;31.85
26978;BME280;56314;48.088;11.642;2023-03-13T10:54:31;94621.25;;;19.67;31.40
26978;BME280;56314;48.088;11.642;2023-03-13T10:59:45;94609.13;;;20.76;30.54
26978;BME280;56314;48.088;11.642;2023-03-13T11:02:25;94600.06;;;20.71;29.48
26978;BME280;56314;48.088;11.642;2023-03-13T11:04:51;94602.97;;;20.76;30.27
26978;BME280;56314;48.088;11.642;2023-03-13T11:07:25;94598.25;;;20.78;30.17
26978;BME280;56314;48.088;11.642;2023-03-13T11:12:44;94593.00;;;21.45;29.13
26978;BME280;56314;48.088;11.642;2023-03-13T11:15:31;94582.28;;;21.92;30.42
26978;BME280;56314;48.088;11.642;2023-03-13T11:20:43;94573.72;;;22.36;27.88
26978;BME280;56314;48.088;11.642;2023-03-13T11:31:37;94574.03;;;22.98;27.44
26978;BME280;56314;48.088;11.642;2023-03-13T11:37:15;94558.22;;;23.91;28.14
26978;BME280;56314;48.088;11.642;2023-03-13T11:51:22;94535.44;;;23.63;27.33
26978;BME280;56314;48.088;11.642;2023-03-13T11:56:43;94532.03;;;23.49;28.62
26978;BME280;56314;48.088;11.642;2023-03-13T12:01:42;94521.13;;;23.70;30.17
26978;BME280;56314;48.088;11.642;2023-03-13T12:04:36;94505.22;;;23.75;29.40
26978;BME280;56314;48.088;11.642;2023-03-13T12:07:26;94499.25;;;23.73;28.98
26978;BME280;56314;48.088;11.642;2023-03-13T12:10:10;94496.72;;;23.59;30.18
26978;BME280;56314;48.088;11.642;2023-03-13T12:12:38;94503.91;;;23.15;31.56
26978;BME280;56314;48.088;11.642;2023-03-13T12:17:48;94500.13;;;21.61;35.13
26978;BME280;56314;48.088;11.642;2023-03-13T12:20:28;94497.81;;;21.78;35.11
26978;BME280;56314;48.088;11.642;2023-03-13T12:25:37;94489.00;;;21.57;36.05
26978;BME280;56314;48.088;11.642;2023-03-13T12:28:30;94500.31;;;21.79;35.59
26978;BME280;56314;48.088;11.642;2023-03-13T12:34:11;94483.69;;;21.57;35.36
26978;BME280;56314;48.088;11.642;2023-03-13T12:41:56;94466.81;;;21.77;35.28
26978;BME280;56314;48.088;11.642;2023-03-13T12:44:26;94466.38;;;21.80;34.82
26978;BME280;56314;48.088;11.642;2023-03-13T12:47:07;94452.00;;;21.74;34.28
26978;BME280;56314;48.088;11.642;2023-03-13T12:53:27;94451.25;;;21.47;34.88
26978;BME280;56314;48.088;11.642;2023-03-13T13:00:54;94442.25;;;21.28;35.12
26978;BME280;56314;48.088;11.642;2023-03-13T13:03:37;94428.88;;;21.34;35.39
26978;BME280;56314;48.088;11.642;2023-03-13T13:06:09;94421.84;;;21.60;34.86
26978;BME280;56314;48.088;11.642;2023-03-13T13:08:45;94421.44;;;21.57;34.94
26978;BME280;56314;48.088;11.642;2023-03-13T13:16:49;94408.31;;;21.35;35.60
26978;BME280;56314;48.088;11.642;2023-03-13T13:24:52;94406.81;;;21.73;34.37
26978;BME280;56314;48.088;11.642;2023-03-13T13:27:45;94404.13;;;21.73;34.62
26978;BME280;56314;48.088;11.642;2023-03-13T13:32:43;94396.91;;;21.80;35.21
26978;BME280;56314;48.088;11.642;2023-03-13T13:37:39;94392.03;;;21.70;35.18
26978;BME280;56314;48.088;11.642;2023-03-13T13:43:12;94391.22;;;21.63;34.60
26978;BME280;56314;48.088;11.642;2023-03-13T13:46:27;94388.78;;;21.55;34.79
26978;BME280;56314;48.088;11.642;2023-03-13T13:51:33;94375.59;;;21.66;35.14
26978;BME280;56314;48.088;11.642;2023-03-13T13:54:02;94374.56;;;21.54;35.04
26978;BME280;56314;48.088;11.642;2023-03-13T13:56:34;94367.00;;;21.51;35.43
26978;BME280;56314;48.088;11.642;2023-03-13T14:01:26;94353.13;;;21.29;35.66
26978;BME280;56314;48.088;11.642;2023-03-13T14:04:03;94346.13;;;21.34;35.90
26978;BME280;56314;48.088;11.642;2023-03-13T14:06:33;94341.63;;;21.28;36.06
26978;BME280;56314;48.088;11.642;2023-03-13T14:10:14;94338.97;;;21.28;36.08
26978;BME280;56314;48.088;11.642;2023-03-13T14:12:29;94329.91;;;21.29;35.77
26978;BME280;56314;48.088;11.642;2023-03-13T14:22:54;94325.03;;;21.19;36.88
26978;BME280;56314;48.088;11.642;2023-03-13T14:25:22;94311.88;;;21.18;36.44
26978;BME280;56314;48.088;11.642;2023-03-13T14:27:49;94299.88;;;20.82;36.37
26978;BME280;56314;48.088;11.642;2023-03-13T14:30:17;94292.94;;;20.40;36.55
26978;BME280;56314;48.088;11.642;2023-03-13T14:32:43;94284.94;;;20.13;37.20
26978;BME280;56314;48.088;11.642;2023-03-13T14:35:13;94288.25;;;20.09;37.29
26978;BME280;56314;48.088;11.642;2023-03-13T14:37:44;94282.50;;;19.98;37.87
26978;BME280;56314;48.088;11.642;2023-03-13T14:40:25;94274.09;;;20.02;38.48